sensor_id;sensor_type;location;lat;lon;timestamp;P1;durP1;ratioP1;P2;durP2;ratioP2
44512;SDS011;30219;50.588;9.504;2022-08-18T00:01:37;9.77;;;4.20;;
44512;SDS011;30219;50.588;9.504;2022-08-18T00:04:05;6.57;;;4.15;;
44512;SDS011;30219;50.588;9.504;2022-08-18T00:06:31;7.53;;;4.35;;
44512;SDS011;30219;50.588;9.504;2022-08-18T00:08:58;7.68;;;4.20;;
44512;SDS011;30219;50.588;9.504;2022-08-18T00:11:25;6.43;;;4.07;;
44512;SDS011;30219;50.588;9.504;2022-08-18T00:13:52;6.35;;;4.03;;
44512;SDS011;30219;50.588;9.504;2022-08-18T00:16:17;9.93;;;4.10;;
44512;SDS011;30219;50.588;9.504;2022-08-18T00:18:43;6.10;;;4.00;;
44512;SDS011;30219;50.588;9.504;2022-08-18T00:21:08;8.23;;;4.20;;
44512;SDS011;30219;50.588;9.504;2022-08-18T00:23:34;10.38;;;4.35;;
44512;SDS011;30219;50.588;9.504;2022-08-18T00:26:00;5.82;;;4.40;;
44512;SDS011;30219;50.588;9.504;2022-08-18T00:28:27;7.32;;;4.07;;
44512;SDS011;30219;50.588;9.504;2022-08-18T00:30:54;7.63;;;4.82;;
44512;SDS011;30219;50.588;9.504;2022-08-18T00:33:19;7.80;;;4.88;;
44512;SDS011;30219;50.588;9.504;2022-08-18T00:35:45;12.35;;;4.78;;
44512;SDS011;30219;50.588;9.504;2022-08-18T00:38:11;9.73;;;4.32;;
44512;SDS011;30219;50.588;9.504;2022-08-18T00:40:38;5.80;;;4.22;;
44512;SDS011;30219;50.588;9.504;2022-08-18T00:43:10;8.85;;;4.40;;
44512;SDS011;30219;50.588;9.504;2022-08-18T00:45:39;7.38;;;4.50;;
44512;SDS011;30219;50.588;9.504;2022-08-18T00:48:07;11.02;;;4.60;;
44512;SDS011;30219;50.588;9.504;2022-08-18T00:50:54;8.68;;;4.72;;
44512;SDS011;30219;50.588;9.504;2022-08-18T00:53:30;7.22;;;4.95;;
44512;SDS011;30219;50.588;9.504;2022-08-18T00:56:07;5.70;;;4.25;;
44512;SDS011;30219;50.588;9.504;2022-08-18T00:58:42;6.90;;;4.28;;
44512;SDS011;30219;50.588;9.504;2022-08-18T01:01:16;8.85;;;4.15;;
44512;SDS011;30219;50.588;9.504;2022-08-18T01:03:45;5.93;;;4.30;;
44512;SDS011;30219;50.588;9.504;2022-08-18T01:06:21;7.43;;;4.25;;
44512;SDS011;30219;50.588;9.504;2022-08-18T01:08:58;9.68;;;4.75;;
44512;SDS011;30219;50.588;9.504;2022-08-18T01:11:25;9.00;;;4.88;;
44512;SDS011;30219;50.588;9.504;2022-08-18T01:13:50;9.65;;;4.63;;
44512;SDS011;30219;50.588;9.504;2022-08-18T01:16:17;7.35;;;4.22;;
44512;SDS011;30219;50.588;9.504;2022-08-18T01:19:02;6.75;;;4.60;;
44512;SDS011;30219;50.588;9.504;2022-08-18T01:21:48;12.32;;;5.25;;
44512;SDS011;30219;50.588;9.504;2022-08-18T01:24:19;5.70;;;4.40;;
44512;SDS011;30219;50.588;9.504;2022-08-18T01:27:11;7.20;;;4.70;;
44512;SDS011;30219;50.588;9.504;2022-08-18T01:29:42;7.03;;;4.30;;
44512;SDS011;30219;50.588;9.504;2022-08-18T01:32:16;11.27;;;4.32;;
44512;SDS011;30219;50.588;9.504;2022-08-18T01:34:47;5.30;;;4.40;;
44512;SDS011;30219;50.588;9.504;2022-08-18T01:37:15;8.60;;;4.30;;
44512;SDS011;30219;50.588;9.504;2022-08-18T01:39:43;7.45;;;4.30;;
44512;SDS011;30219;50.588;9.504;2022-08-18T01:42:11;5.15;;;4.15;;
44512;SDS011;30219;50.588;9.504;2022-08-18T01:44:38;8.57;;;5.38;;
44512;SDS011;30219;50.588;9.504;2022-08-18T01:47:07;6.13;;;4.65;;
44512;SDS011;30219;50.588;9.504;2022-08-18T01:49:34;6.50;;;4.00;;
44512;SDS011;30219;50.588;9.504;2022-08-18T01:52:01;6.00;;;4.35;;
44512;SDS011;30219;50.588;9.504;2022-08-18T01:54:28;6.72;;;4.43;;
44512;SDS011;30219;50.588;9.504;2022-08-18T01:56:54;6.80;;;4.85;;
44512;SDS011;30219;50.588;9.504;2022-08-18T01:59:20;5.43;;;3.90;;
44512;SDS011;30219;50.588;9.504;2022-08-18T02:01:46;6.32;;;4.32;;
44512;SDS011;30219;50.588;9.504;2022-08-18T02:04:12;6.38;;;3.90;;
44512;SDS011;30219;50.588;9.504;2022-08-18T02:06:40;8.60;;;4.63;;
44512;SDS011;30219;50.588;9.504;2022-08-18T02:09:05;9.02;;;4.82;;
44512;SDS011;30219;50.588;9.504;2022-08-18T02:11:31;8.10;;;5.05;;
44512;SDS011;30219;50.588;9.504;2022-08-18T02:13:57;6.22;;;4.25;;
44512;SDS011;30219;50.588;9.504;2022-08-18T02:16:23;7.35;;;5.03;;
44512;SDS011;30219;50.588;9.504;2022-08-18T02:18:48;12.18;;;5.57;;
44512;SDS011;30219;50.588;9.504;2022-08-18T02:21:15;8.50;;;4.70;;
44512;SDS011;30219;50.588;9.504;2022-08-18T02:23:43;9.57;;;5.00;;
44512;SDS011;30219;50.588;9.504;2022-08-18T02:26:10;7.07;;;5.03;;
44512;SDS011;30219;50.588;9.504;2022-08-18T02:28:40;8.38;;;4.70;;
44512;SDS011;30219;50.588;9.504;2022-08-18T02:31:08;5.75;;;4.60;;
44512;SDS011;30219;50.588;9.504;2022-08-18T02:33:35;5.40;;;4.57;;
44512;SDS011;30219;50.588;9.504;2022-08-18T02:36:02;7.60;;;4.32;;
44512;SDS011;30219;50.588;9.504;2022-08-18T02:38:28;9.30;;;4.90;;
44512;SDS011;30219;50.588;9.504;2022-08-18T02:40:55;8.40;;;4.82;;
44512;SDS011;30219;50.588;9.504;2022-08-18T02:43:22;8.20;;;4.75;;
44512;SDS011;30219;50.588;9.504;2022-08-18T02:45:48;9.55;;;5.20;;
44512;SDS011;30219;50.588;9.504;2022-08-18T02:48:13;6.25;;;4.93;;
44512;SDS011;30219;50.588;9.504;2022-08-18T02:50:39;7.82;;;5.03;;
44512;SDS011;30219;50.588;9.504;2022-08-18T02:53:11;7.13;;;4.65;;
44512;SDS011;30219;50.588;9.504;2022-08-18T02:55:44;7.25;;;5.00;;
44512;SDS011;30219;50.588;9.504;2022-08-18T02:58:10;8.70;;;5.03;;
44512;SDS011;30219;50.588;9.504;2022-08-18T03:00:37;8.38;;;4.88;;
44512;SDS011;30219;50.588;9.504;2022-08-18T03:03:03;6.47;;;5.10;;
44512;SDS011;30219;50.588;9.504;2022-08-18T03:05:28;7.43;;;4.57;;
44512;SDS011;30219;50.588;9.504;2022-08-18T03:07:54;6.72;;;5.05;;
44512;SDS011;30219;50.588;9.504;2022-08-18T03:10:20;6.82;;;5.50;;
44512;SDS011;30219;50.588;9.504;2022-08-18T03:12:46;7.18;;;5.30;;
44512;SDS011;30219;50.588;9.504;2022-08-18T03:15:11;9.68;;;5.55;;
44512;SDS011;30219;50.588;9.504;2022-08-18T03:17:37;11.13;;;5.70;;
44512;SDS011;30219;50.588;9.504;2022-08-18T03:20:04;7.38;;;4.85;;
44512;SDS011;30219;50.588;9.504;2022-08-18T03:22:30;8.18;;;5.30;;
44512;SDS011;30219;50.588;9.504;2022-08-18T03:24:56;7.72;;;4.60;;
44512;SDS011;30219;50.588;9.504;2022-08-18T03:27:22;6.45;;;5.03;;
44512;SDS011;30219;50.588;9.504;2022-08-18T03:29:48;7.75;;;5.07;;
44512;SDS011;30219;50.588;9.504;2022-08-18T03:32:15;7.07;;;4.85;;
44512;SDS011;30219;50.588;9.504;2022-08-18T03:34:40;7.63;;;5.05;;
44512;SDS011;30219;50.588;9.504;2022-08-18T03:37:06;7.38;;;5.13;;
44512;SDS011;30219;50.588;9.504;2022-08-18T03:39:33;8.15;;;5.15;;
44512;SDS011;30219;50.588;9.504;2022-08-18T03:41:58;10.65;;;5.80;;
44512;SDS011;30219;50.588;9.504;2022-08-18T03:44:25;10.82;;;6.13;;
44512;SDS011;30219;50.588;9.504;2022-08-18T03:46:51;10.30;;;6.50;;
44512;SDS011;30219;50.588;9.504;2022-08-18T03:49:18;9.45;;;5.78;;
44512;SDS011;30219;50.588;9.504;2022-08-18T03:51:45;9.18;;;5.30;;
44512;SDS011;30219;50.588;9.504;2022-08-18T03:54:11;8.80;;;6.00;;
44512;SDS011;30219;50.588;9.504;2022-08-18T03:56:38;10.23;;;5.78;;
44512;SDS011;30219;50.588;9.504;2022-08-18T03:59:15;8.13;;;5.30;;
44512;SDS011;30219;50.588;9.504;2022-08-18T04:01:43;7.78;;;5.40;;
44512;SDS011;30219;50.588;9.504;2022-08-18T04:04:12;8.65;;;5.65;;
44512;SDS011;30219;50.588;9.504;2022-08-18T04:06:44;8.38;;;5.63;;
44512;SDS011;30219;50.588;9.504;2022-08-18T04:11:43;7.80;;;5.30;;
44512;SDS011;30219;50.588;9.504;2022-08-18T04:14:14;7.40;;;4.70;;
44512;SDS011;30219;50.588;9.504;2022-08-18T04:16:44;8.73;;;5.50;;
44512;SDS011;30219;50.588;9.504;2022-08-18T04:19:10;10.23;;;5.40;;
44512;SDS011;30219;50.588;9.504;2022-08-18T04:21:38;6.72;;;5.22;;
44512;SDS011;30219;50.588;9.504;2022-08-18T04:24:06;8.43;;;5.60;;
44512;SDS011;30219;50.588;9.504;2022-08-18T04:26:34;7.60;;;5.80;;
44512;SDS011;30219;50.588;9.504;2022-08-18T04:29:03;8.90;;;5.40;;
44512;SDS011;30219;50.588;9.504;2022-08-18T04:31:29;8.65;;;5.70;;
44512;SDS011;30219;50.588;9.504;2022-08-18T04:33:56;10.27;;;5.75;;
44512;SDS011;30219;50.588;9.504;2022-08-18T04:36:22;9.55;;;5.80;;
44512;SDS011;30219;50.588;9.504;2022-08-18T04:38:49;9.57;;;5.28;;
44512;SDS011;30219;50.588;9.504;2022-08-18T04:41:14;9.90;;;5.57;;
44512;SDS011;30219;50.588;9.504;2022-08-18T04:43:40;8.32;;;6.30;;
44512;SDS011;30219;50.588;9.504;2022-08-18T04:46:06;9.13;;;5.20;;
44512;SDS011;30219;50.588;9.504;2022-08-18T04:48:33;13.57;;;6.28;;
44512;SDS011;30219;50.588;9.504;2022-08-18T04:51:05;10.02;;;6.72;;
44512;SDS011;30219;50.588;9.504;2022-08-18T04:53:36;8.45;;;5.55;;
44512;SDS011;30219;50.588;9.504;2022-08-18T04:56:19;7.15;;;5.68;;
44512;SDS011;30219;50.588;9.504;2022-08-18T04:58:55;8.32;;;5.03;;
44512;SDS011;30219;50.588;9.504;2022-08-18T05:01:25;7.28;;;5.78;;
44512;SDS011;30219;50.588;9.504;2022-08-18T05:03:56;10.23;;;5.95;;
44512;SDS011;30219;50.588;9.504;2022-08-18T05:06:23;8.10;;;5.72;;
44512;SDS011;30219;50.588;9.504;2022-08-18T05:08:54;9.98;;;6.35;;
44512;SDS011;30219;50.588;9.504;2022-08-18T05:11:26;7.65;;;5.75;;
44512;SDS011;30219;50.588;9.504;2022-08-18T05:13:54;12.23;;;5.55;;
44512;SDS011;30219;50.588;9.504;2022-08-18T05:16:22;11.50;;;6.00;;
44512;SDS011;30219;50.588;9.504;2022-08-18T05:18:49;12.90;;;7.10;;
44512;SDS011;30219;50.588;9.504;2022-08-18T05:21:15;15.32;;;7.10;;
44512;SDS011;30219;50.588;9.504;2022-08-18T05:23:41;13.18;;;6.65;;
44512;SDS011;30219;50.588;9.504;2022-08-18T05:26:08;13.40;;;6.20;;
44512;SDS011;30219;50.588;9.504;2022-08-18T05:28:35;9.85;;;6.22;;
44512;SDS011;30219;50.588;9.504;2022-08-18T05:31:05;13.43;;;6.22;;
44512;SDS011;30219;50.588;9.504;2022-08-18T05:33:33;11.67;;;6.23;;
44512;SDS011;30219;50.588;9.504;2022-08-18T05:36:01;15.10;;;6.97;;
44512;SDS011;30219;50.588;9.504;2022-08-18T05:38:52;17.00;;;7.30;;
44512;SDS011;30219;50.588;9.504;2022-08-18T05:41:37;12.13;;;6.80;;
44512;SDS011;30219;50.588;9.504;2022-08-18T05:44:07;10.27;;;7.00;;
44512;SDS011;30219;50.588;9.504;2022-08-18T05:46:50;11.02;;;6.70;;
44512;SDS011;30219;50.588;9.504;2022-08-18T05:49:17;9.93;;;6.32;;
44512;SDS011;30219;50.588;9.504;2022-08-18T05:51:45;15.15;;;7.38;;
44512;SDS011;30219;50.588;9.504;2022-08-18T05:54:18;10.63;;;7.30;;
44512;SDS011;30219;50.588;9.504;2022-08-18T05:57:05;15.40;;;8.32;;
44512;SDS011;30219;50.588;9.504;2022-08-18T05:59:37;10.05;;;7.03;;
44512;SDS011;30219;50.588;9.504;2022-08-18T06:04:54;17.40;;;8.88;;
44512;SDS011;30219;50.588;9.504;2022-08-18T06:07:43;15.43;;;8.80;;
44512;SDS011;30219;50.588;9.504;2022-08-18T06:10:14;13.10;;;8.60;;
44512;SDS011;30219;50.588;9.504;2022-08-18T06:21:00;13.27;;;7.18;;
44512;SDS011;30219;50.588;9.504;2022-08-18T06:23:55;31.38;;;10.35;;
44512;SDS011;30219;50.588;9.504;2022-08-18T06:26:38;39.50;;;13.15;;
44512;SDS011;30219;50.588;9.504;2022-08-18T06:35:04;22.45;;;13.43;;
44512;SDS011;30219;50.588;9.504;2022-08-18T06:41:14;178.25;;;19.45;;
44512;SDS011;30219;50.588;9.504;2022-08-18T06:54:45;19.05;;;11.13;;
44512;SDS011;30219;50.588;9.504;2022-08-18T06:57:21;26.30;;;11.13;;
44512;SDS011;30219;50.588;9.504;2022-08-18T06:59:53;31.33;;;13.02;;
44512;SDS011;30219;50.588;9.504;2022-08-18T07:02:23;40.65;;;12.63;;
44512;SDS011;30219;50.588;9.504;2022-08-18T07:07:40;21.45;;;10.90;;
44512;SDS011;30219;50.588;9.504;2022-08-18T07:10:27;21.88;;;12.38;;
44512;SDS011;30219;50.588;9.504;2022-08-18T07:13:36;25.40;;;11.35;;
44512;SDS011;30219;50.588;9.504;2022-08-18T07:15:55;18.80;;;11.77;;
44512;SDS011;30219;50.588;9.504;2022-08-18T07:18:40;28.98;;;13.00;;
44512;SDS011;30219;50.588;9.504;2022-08-18T07:21:05;29.70;;;12.40;;
44512;SDS011;30219;50.588;9.504;2022-08-18T07:23:36;28.35;;;12.25;;
44512;SDS011;30219;50.588;9.504;2022-08-18T07:33:55;21.08;;;10.38;;
44512;SDS011;30219;50.588;9.504;2022-08-18T07:36:26;22.85;;;10.90;;
44512;SDS011;30219;50.588;9.504;2022-08-18T07:39:27;16.75;;;10.25;;
44512;SDS011;30219;50.588;9.504;2022-08-18T07:42:06;13.40;;;9.43;;
44512;SDS011;30219;50.588;9.504;2022-08-18T07:44:42;19.15;;;10.27;;
44512;SDS011;30219;50.588;9.504;2022-08-18T07:47:20;31.52;;;12.05;;
44512;SDS011;30219;50.588;9.504;2022-08-18T07:50:00;23.08;;;10.35;;
44512;SDS011;30219;50.588;9.504;2022-08-18T07:52:28;23.35;;;11.50;;
44512;SDS011;30219;50.588;9.504;2022-08-18T07:55:21;28.42;;;12.50;;
44512;SDS011;30219;50.588;9.504;2022-08-18T07:58:14;15.98;;;10.13;;
44512;SDS011;30219;50.588;9.504;2022-08-18T08:01:18;24.05;;;11.20;;
44512;SDS011;30219;50.588;9.504;2022-08-18T08:06:40;26.30;;;11.23;;
44512;SDS011;30219;50.588;9.504;2022-08-18T08:12:22;24.83;;;11.25;;
44512;SDS011;30219;50.588;9.504;2022-08-18T08:15:47;21.50;;;10.02;;
44512;SDS011;30219;50.588;9.504;2022-08-18T08:17:49;21.35;;;11.18;;
44512;SDS011;30219;50.588;9.504;2022-08-18T08:20:30;24.92;;;11.48;;
44512;SDS011;30219;50.588;9.504;2022-08-18T08:23:19;18.90;;;11.23;;
44512;SDS011;30219;50.588;9.504;2022-08-18T08:28:31;20.90;;;12.02;;
44512;SDS011;30219;50.588;9.504;2022-08-18T08:33:36;24.75;;;11.82;;
44512;SDS011;30219;50.588;9.504;2022-08-18T08:36:13;22.60;;;13.32;;
44512;SDS011;30219;50.588;9.504;2022-08-18T08:39:00;21.00;;;11.32;;
44512;SDS011;30219;50.588;9.504;2022-08-18T08:41:46;22.13;;;12.82;;
44512;SDS011;30219;50.588;9.504;2022-08-18T08:44:54;26.83;;;12.38;;
44512;SDS011;30219;50.588;9.504;2022-08-18T08:47:24;22.35;;;11.60;;
44512;SDS011;30219;50.588;9.504;2022-08-18T08:49:57;24.25;;;13.40;;
44512;SDS011;30219;50.588;9.504;2022-08-18T08:52:41;18.52;;;11.88;;
44512;SDS011;30219;50.588;9.504;2022-08-18T08:55:33;29.77;;;12.48;;
44512;SDS011;30219;50.588;9.504;2022-08-18T09:00:37;18.83;;;11.50;;
44512;SDS011;30219;50.588;9.504;2022-08-18T09:08:40;22.15;;;14.52;;
44512;SDS011;30219;50.588;9.504;2022-08-18T09:25:11;18.60;;;13.45;;
44512;SDS011;30219;50.588;9.504;2022-08-18T09:28:16;22.52;;;14.75;;
44512;SDS011;30219;50.588;9.504;2022-08-18T09:52:55;28.15;;;18.98;;
44512;SDS011;30219;50.588;9.504;2022-08-18T09:58:11;27.52;;;21.30;;
44512;SDS011;30219;50.588;9.504;2022-08-18T10:00:38;30.88;;;21.13;;
44512;SDS011;30219;50.588;9.504;2022-08-18T10:03:09;29.70;;;21.88;;
44512;SDS011;30219;50.588;9.504;2022-08-18T10:05:37;35.45;;;24.25;;
44512;SDS011;30219;50.588;9.504;2022-08-18T10:10:40;35.63;;;26.65;;
44512;SDS011;30219;50.588;9.504;2022-08-18T10:13:25;40.65;;;28.70;;
44512;SDS011;30219;50.588;9.504;2022-08-18T10:16:31;46.95;;;32.97;;
44512;SDS011;30219;50.588;9.504;2022-08-18T10:19:16;41.22;;;32.60;;
44512;SDS011;30219;50.588;9.504;2022-08-18T10:24:22;42.67;;;33.72;;
44512;SDS011;30219;50.588;9.504;2022-08-18T10:35:01;41.38;;;33.90;;
44512;SDS011;30219;50.588;9.504;2022-08-18T10:37:22;46.78;;;36.95;;
44512;SDS011;30219;50.588;9.504;2022-08-18T10:39:56;49.35;;;39.25;;
44512;SDS011;30219;50.588;9.504;2022-08-18T10:42:31;51.92;;;39.78;;
44512;SDS011;30219;50.588;9.504;2022-08-18T10:45:06;44.65;;;36.75;;
44512;SDS011;30219;50.588;9.504;2022-08-18T10:50:41;43.35;;;35.10;;
44512;SDS011;30219;50.588;9.504;2022-08-18T10:58:21;51.78;;;37.85;;
44512;SDS011;30219;50.588;9.504;2022-08-18T11:01:13;44.08;;;33.78;;
44512;SDS011;30219;50.588;9.504;2022-08-18T11:04:02;48.10;;;35.25;;
44512;SDS011;30219;50.588;9.504;2022-08-18T11:06:28;50.00;;;37.05;;
44512;SDS011;30219;50.588;9.504;2022-08-18T11:09:03;45.63;;;34.72;;
44512;SDS011;30219;50.588;9.504;2022-08-18T11:11:40;47.78;;;37.38;;
44512;SDS011;30219;50.588;9.504;2022-08-18T11:14:14;44.08;;;35.50;;
44512;SDS011;30219;50.588;9.504;2022-08-18T11:16:51;42.42;;;34.72;;
44512;SDS011;30219;50.588;9.504;2022-08-18T11:19:29;41.85;;;35.50;;
44512;SDS011;30219;50.588;9.504;2022-08-18T11:22:02;37.33;;;30.40;;
44512;SDS011;30219;50.588;9.504;2022-08-18T11:24:29;44.72;;;34.75;;
44512;SDS011;30219;50.588;9.504;2022-08-18T11:27:06;43.35;;;33.63;;
44512;SDS011;30219;50.588;9.504;2022-08-18T11:29:45;45.08;;;34.65;;
44512;SDS011;30219;50.588;9.504;2022-08-18T11:34:46;38.50;;;33.13;;
44512;SDS011;30219;50.588;9.504;2022-08-18T11:37:25;44.63;;;34.15;;
44512;SDS011;30219;50.588;9.504;2022-08-18T11:39:52;43.83;;;34.33;;
44512;SDS011;30219;50.588;9.504;2022-08-18T11:42:25;40.95;;;33.88;;
44512;SDS011;30219;50.588;9.504;2022-08-18T11:44:53;40.10;;;32.95;;
44512;SDS011;30219;50.588;9.504;2022-08-18T11:47:25;38.03;;;31.10;;
44512;SDS011;30219;50.588;9.504;2022-08-18T11:49:56;36.67;;;32.63;;
44512;SDS011;30219;50.588;9.504;2022-08-18T11:52:32;34.00;;;28.60;;
44512;SDS011;30219;50.588;9.504;2022-08-18T11:55:16;35.28;;;29.38;;
44512;SDS011;30219;50.588;9.504;2022-08-18T12:05:45;35.42;;;27.23;;
44512;SDS011;30219;50.588;9.504;2022-08-18T12:08:29;34.00;;;27.98;;
44512;SDS011;30219;50.588;9.504;2022-08-18T12:11:12;38.27;;;30.30;;
44512;SDS011;30219;50.588;9.504;2022-08-18T12:13:44;28.63;;;24.45;;
44512;SDS011;30219;50.588;9.504;2022-08-18T12:16:17;28.67;;;24.95;;
44512;SDS011;30219;50.588;9.504;2022-08-18T12:19:03;42.40;;;33.55;;
44512;SDS011;30219;50.588;9.504;2022-08-18T12:21:31;38.22;;;31.52;;
44512;SDS011;30219;50.588;9.504;2022-08-18T12:23:57;37.40;;;32.83;;
44512;SDS011;30219;50.588;9.504;2022-08-18T12:26:23;44.40;;;34.00;;
44512;SDS011;30219;50.588;9.504;2022-08-18T12:28:49;32.50;;;27.15;;
44512;SDS011;30219;50.588;9.504;2022-08-18T12:31:14;34.63;;;28.30;;
44512;SDS011;30219;50.588;9.504;2022-08-18T12:33:40;29.58;;;24.45;;
44512;SDS011;30219;50.588;9.504;2022-08-18T12:36:05;32.72;;;25.77;;
44512;SDS011;30219;50.588;9.504;2022-08-18T12:38:31;24.90;;;21.98;;
44512;SDS011;30219;50.588;9.504;2022-08-18T12:40:57;25.55;;;22.65;;
44512;SDS011;30219;50.588;9.504;2022-08-18T12:43:23;29.65;;;24.02;;
44512;SDS011;30219;50.588;9.504;2022-08-18T12:45:49;30.55;;;25.40;;
44512;SDS011;30219;50.588;9.504;2022-08-18T12:48:16;28.67;;;23.42;;
44512;SDS011;30219;50.588;9.504;2022-08-18T12:50:42;30.27;;;23.67;;
44512;SDS011;30219;50.588;9.504;2022-08-18T12:53:08;32.47;;;26.65;;
44512;SDS011;30219;50.588;9.504;2022-08-18T12:55:37;24.35;;;21.38;;
44512;SDS011;30219;50.588;9.504;2022-08-18T12:58:06;27.80;;;22.47;;
44512;SDS011;30219;50.588;9.504;2022-08-18T13:00:32;26.52;;;21.77;;
44512;SDS011;30219;50.588;9.504;2022-08-18T13:02:58;23.00;;;20.52;;
44512;SDS011;30219;50.588;9.504;2022-08-18T13:05:24;26.42;;;20.85;;
44512;SDS011;30219;50.588;9.504;2022-08-18T13:07:50;24.20;;;21.02;;
44512;SDS011;30219;50.588;9.504;2022-08-18T13:10:16;27.65;;;23.30;;
44512;SDS011;30219;50.588;9.504;2022-08-18T13:12:41;24.63;;;21.98;;
44512;SDS011;30219;50.588;9.504;2022-08-18T13:15:07;28.02;;;23.58;;
44512;SDS011;30219;50.588;9.504;2022-08-18T13:17:35;25.13;;;22.13;;
44512;SDS011;30219;50.588;9.504;2022-08-18T13:20:03;27.23;;;23.38;;
44512;SDS011;30219;50.588;9.504;2022-08-18T13:22:33;27.60;;;22.55;;
44512;SDS011;30219;50.588;9.504;2022-08-18T13:25:00;28.67;;;24.33;;
44512;SDS011;30219;50.588;9.504;2022-08-18T13:27:27;29.73;;;25.02;;
44512;SDS011;30219;50.588;9.504;2022-08-18T13:29:52;28.70;;;22.98;;
44512;SDS011;30219;50.588;9.504;2022-08-18T13:32:18;33.65;;;26.30;;
44512;SDS011;30219;50.588;9.504;2022-08-18T13:34:43;33.00;;;26.90;;
44512;SDS011;30219;50.588;9.504;2022-08-18T13:37:09;36.42;;;27.08;;
44512;SDS011;30219;50.588;9.504;2022-08-18T13:39:34;32.58;;;26.17;;
44512;SDS011;30219;50.588;9.504;2022-08-18T13:42:02;32.28;;;26.45;;
44512;SDS011;30219;50.588;9.504;2022-08-18T13:44:28;33.92;;;27.25;;
44512;SDS011;30219;50.588;9.504;2022-08-18T13:46:53;34.97;;;27.88;;
44512;SDS011;30219;50.588;9.504;2022-08-18T13:49:21;32.95;;;26.02;;
44512;SDS011;30219;50.588;9.504;2022-08-18T13:51:48;32.83;;;26.60;;
44512;SDS011;30219;50.588;9.504;2022-08-18T13:54:17;32.50;;;26.73;;
44512;SDS011;30219;50.588;9.504;2022-08-18T13:56:47;30.45;;;25.23;;
44512;SDS011;30219;50.588;9.504;2022-08-18T13:59:13;31.48;;;23.67;;
44512;SDS011;30219;50.588;9.504;2022-08-18T14:01:40;30.55;;;25.00;;
44512;SDS011;30219;50.588;9.504;2022-08-18T14:04:06;30.45;;;25.92;;
44512;SDS011;30219;50.588;9.504;2022-08-18T14:06:33;26.77;;;21.58;;
44512;SDS011;30219;50.588;9.504;2022-08-18T14:08:58;30.00;;;23.10;;
44512;SDS011;30219;50.588;9.504;2022-08-18T14:11:25;30.27;;;24.40;;
44512;SDS011;30219;50.588;9.504;2022-08-18T14:13:53;28.77;;;20.60;;
44512;SDS011;30219;50.588;9.504;2022-08-18T14:16:19;24.88;;;21.38;;
44512;SDS011;30219;50.588;9.504;2022-08-18T14:18:45;24.38;;;21.77;;
44512;SDS011;30219;50.588;9.504;2022-08-18T14:21:31;21.38;;;18.88;;
44512;SDS011;30219;50.588;9.504;2022-08-18T14:24:16;19.08;;;16.77;;
44512;SDS011;30219;50.588;9.504;2022-08-18T14:27:00;22.65;;;18.80;;
44512;SDS011;30219;50.588;9.504;2022-08-18T14:29:26;28.23;;;18.98;;
44512;SDS011;30219;50.588;9.504;2022-08-18T14:31:51;21.45;;;18.50;;
44512;SDS011;30219;50.588;9.504;2022-08-18T14:34:17;26.08;;;20.67;;
44512;SDS011;30219;50.588;9.504;2022-08-18T14:36:43;23.45;;;18.70;;
44512;SDS011;30219;50.588;9.504;2022-08-18T14:39:09;25.30;;;19.73;;
44512;SDS011;30219;50.588;9.504;2022-08-18T14:41:35;26.25;;;21.42;;
44512;SDS011;30219;50.588;9.504;2022-08-18T14:44:01;27.55;;;20.73;;
44512;SDS011;30219;50.588;9.504;2022-08-18T14:46:27;21.38;;;18.13;;
44512;SDS011;30219;50.588;9.504;2022-08-18T14:48:53;21.58;;;18.85;;
44512;SDS011;30219;50.588;9.504;2022-08-18T14:51:18;26.88;;;22.13;;
44512;SDS011;30219;50.588;9.504;2022-08-18T14:53:44;27.30;;;20.10;;
44512;SDS011;30219;50.588;9.504;2022-08-18T14:56:09;24.27;;;19.83;;
44512;SDS011;30219;50.588;9.504;2022-08-18T14:58:36;25.77;;;21.13;;
44512;SDS011;30219;50.588;9.504;2022-08-18T15:01:05;26.80;;;21.55;;
44512;SDS011;30219;50.588;9.504;2022-08-18T15:03:32;30.30;;;22.50;;
44512;SDS011;30219;50.588;9.504;2022-08-18T15:06:00;25.98;;;21.23;;
44512;SDS011;30219;50.588;9.504;2022-08-18T15:08:28;26.17;;;21.17;;
44512;SDS011;30219;50.588;9.504;2022-08-18T15:10:55;23.27;;;17.67;;
44512;SDS011;30219;50.588;9.504;2022-08-18T15:13:21;24.90;;;20.70;;
44512;SDS011;30219;50.588;9.504;2022-08-18T15:15:48;27.48;;;19.58;;
44512;SDS011;30219;50.588;9.504;2022-08-18T15:18:13;26.65;;;19.92;;
44512;SDS011;30219;50.588;9.504;2022-08-18T15:20:39;22.80;;;18.17;;
44512;SDS011;30219;50.588;9.504;2022-08-18T15:23:24;22.70;;;17.90;;
44512;SDS011;30219;50.588;9.504;2022-08-18T15:26:09;22.90;;;18.02;;
44512;SDS011;30219;50.588;9.504;2022-08-18T15:28:35;24.73;;;17.83;;
44512;SDS011;30219;50.588;9.504;2022-08-18T15:31:02;25.60;;;19.90;;
44512;SDS011;30219;50.588;9.504;2022-08-18T15:33:28;31.42;;;22.25;;
44512;SDS011;30219;50.588;9.504;2022-08-18T15:35:54;24.08;;;19.13;;
44512;SDS011;30219;50.588;9.504;2022-08-18T15:38:20;28.83;;;23.60;;
44512;SDS011;30219;50.588;9.504;2022-08-18T15:40:48;28.13;;;22.60;;
44512;SDS011;30219;50.588;9.504;2022-08-18T15:43:21;30.20;;;23.10;;
44512;SDS011;30219;50.588;9.504;2022-08-18T15:45:47;31.48;;;25.40;;
44512;SDS011;30219;50.588;9.504;2022-08-18T15:48:14;31.42;;;22.95;;
44512;SDS011;30219;50.588;9.504;2022-08-18T15:50:41;32.20;;;26.17;;
44512;SDS011;30219;50.588;9.504;2022-08-18T15:53:09;37.58;;;29.17;;
44512;SDS011;30219;50.588;9.504;2022-08-18T15:55:36;36.20;;;28.92;;
44512;SDS011;30219;50.588;9.504;2022-08-18T15:58:03;36.70;;;28.00;;
44512;SDS011;30219;50.588;9.504;2022-08-18T16:00:29;35.53;;;26.70;;
44512;SDS011;30219;50.588;9.504;2022-08-18T16:02:57;38.92;;;30.10;;
44512;SDS011;30219;50.588;9.504;2022-08-18T16:05:26;35.15;;;26.38;;
44512;SDS011;30219;50.588;9.504;2022-08-18T16:07:55;34.03;;;26.48;;
44512;SDS011;30219;50.588;9.504;2022-08-18T16:10:22;35.00;;;27.00;;
44512;SDS011;30219;50.588;9.504;2022-08-18T16:12:50;32.08;;;25.63;;
44512;SDS011;30219;50.588;9.504;2022-08-18T16:15:17;39.03;;;30.08;;
44512;SDS011;30219;50.588;9.504;2022-08-18T16:17:46;41.15;;;31.17;;
44512;SDS011;30219;50.588;9.504;2022-08-18T16:20:15;40.22;;;30.83;;
44512;SDS011;30219;50.588;9.504;2022-08-18T16:22:42;39.30;;;30.77;;
44512;SDS011;30219;50.588;9.504;2022-08-18T16:25:09;38.45;;;29.10;;
44512;SDS011;30219;50.588;9.504;2022-08-18T16:27:35;41.03;;;32.38;;
44512;SDS011;30219;50.588;9.504;2022-08-18T16:30:10;38.90;;;30.20;;
44512;SDS011;30219;50.588;9.504;2022-08-18T16:32:45;43.42;;;32.50;;
44512;SDS011;30219;50.588;9.504;2022-08-18T16:35:11;38.40;;;27.75;;
44512;SDS011;30219;50.588;9.504;2022-08-18T16:37:37;34.63;;;26.15;;
44512;SDS011;30219;50.588;9.504;2022-08-18T16:40:04;32.80;;;25.95;;
44512;SDS011;30219;50.588;9.504;2022-08-18T16:42:30;32.67;;;24.73;;
44512;SDS011;30219;50.588;9.504;2022-08-18T16:44:59;35.65;;;28.27;;
44512;SDS011;30219;50.588;9.504;2022-08-18T16:47:25;40.67;;;30.73;;
44512;SDS011;30219;50.588;9.504;2022-08-18T16:49:52;35.20;;;28.05;;
44512;SDS011;30219;50.588;9.504;2022-08-18T16:52:18;41.03;;;30.15;;
44512;SDS011;30219;50.588;9.504;2022-08-18T16:54:44;35.25;;;26.98;;
44512;SDS011;30219;50.588;9.504;2022-08-18T16:57:11;41.88;;;32.25;;
44512;SDS011;30219;50.588;9.504;2022-08-18T16:59:37;38.10;;;30.38;;
44512;SDS011;30219;50.588;9.504;2022-08-18T17:02:21;38.53;;;28.77;;
44512;SDS011;30219;50.588;9.504;2022-08-18T17:05:06;39.15;;;31.40;;
44512;SDS011;30219;50.588;9.504;2022-08-18T17:07:33;33.30;;;26.25;;